sensor_id;sensor_type;location;lat;lon;timestamp;pressure;altitude;pressure_sealevel;temperature;humidity
19795;BME280;10057;59.402;17.866;2022-08-03T00:00:21;101126.72;;;18.13;61.44
19795;BME280;10057;59.402;17.866;2022-08-03T00:02:52;101124.88;;;18.13;61.41
19795;BME280;10057;59.402;17.866;2022-08-03T00:05:19;101111.53;;;18.12;61.57
19795;BME280;10057;59.402;17.866;2022-08-03T00:07:45;101110.69;;;18.11;61.52
19795;BME280;10057;59.402;17.866;2022-08-03T00:10:15;101106.47;;;18.07;61.84
19795;BME280;10057;59.402;17.866;2022-08-03T00:12:42;101103.03;;;18.05;62.12
19795;BME280;10057;59.402;17.866;2022-08-03T00:15:09;101099.47;;;18.05;61.94
19795;BME280;10057;59.402;17.866;2022-08-03T00:17:42;101099.38;;;18.06;62.18
19795;BME280;10057;59.402;17.866;2022-08-03T00:20:22;101099.47;;;18.05;61.89
19795;BME280;10057;59.402;17.866;2022-08-03T00:22:49;101114.81;;;18.03;61.88
19795;BME280;10057;59.402;17.866;2022-08-03T00:25:16;101118.38;;;18.03;62.00
19795;BME280;10057;59.402;17.866;2022-08-03T00:27:43;101116.53;;;18.04;61.86
19795;BME280;10057;59.402;17.866;2022-08-03T00:30:10;101115.09;;;17.98;61.80
19795;BME280;10057;59.402;17.866;2022-08-03T00:32:37;101117.22;;;17.93;61.65
19795;BME280;10057;59.402;17.866;2022-08-03T00:35:10;101108.69;;;17.86;61.78
19795;BME280;10057;59.402;17.866;2022-08-03T00:37:57;101110.00;;;17.79;62.05
19795;BME280;10057;59.402;17.866;2022-08-03T00:40:24;101116.44;;;17.76;62.09
19795;BME280;10057;59.402;17.866;2022-08-03T00:42:56;101107.84;;;17.70;61.96
19795;BME280;10057;59.402;17.866;2022-08-03T00:45:29;101102.59;;;17.68;62.15
19795;BME280;10057;59.402;17.866;2022-08-03T00:47:56;101097.22;;;17.68;61.86
19795;BME280;10057;59.402;17.866;2022-08-03T00:50:25;101101.75;;;17.68;61.81
19795;BME280;10057;59.402;17.866;2022-08-03T00:52:54;101095.47;;;17.67;62.05
19795;BME280;10057;59.402;17.866;2022-08-03T00:55:21;101101.91;;;17.65;61.75
19795;BME280;10057;59.402;17.866;2022-08-03T00:57:49;101103.81;;;17.63;61.68
19795;BME280;10057;59.402;17.866;2022-08-03T01:00:19;101090.69;;;17.58;61.71
19795;BME280;10057;59.402;17.866;2022-08-03T01:02:48;101099.78;;;17.56;61.66
19795;BME280;10057;59.402;17.866;2022-08-03T01:05:15;101107.06;;;17.53;61.41
19795;BME280;10057;59.402;17.866;2022-08-03T01:15:56;101099.00;;;17.53;61.04
19795;BME280;10057;59.402;17.866;2022-08-03T01:21:01;101095.94;;;17.45;61.12
19795;BME280;10057;59.402;17.866;2022-08-03T01:30:04;101102.44;;;17.41;61.18
19795;BME280;10057;59.402;17.866;2022-08-03T01:32:51;101090.94;;;17.39;61.12
19795;BME280;10057;59.402;17.866;2022-08-03T01:38:10;101085.06;;;17.33;61.42
19795;BME280;10057;59.402;17.866;2022-08-03T01:40:39;101083.19;;;17.35;61.57
19795;BME280;10057;59.402;17.866;2022-08-03T01:43:09;101085.88;;;17.35;61.66
19795;BME280;10057;59.402;17.866;2022-08-03T01:45:37;101086.91;;;17.32;61.69
19795;BME280;10057;59.402;17.866;2022-08-03T01:48:05;101078.34;;;17.25;61.83
19795;BME280;10057;59.402;17.866;2022-08-03T01:50:33;101079.59;;;17.20;62.05
19795;BME280;10057;59.402;17.866;2022-08-03T01:53:00;101082.38;;;17.18;62.18
19795;BME280;10057;59.402;17.866;2022-08-03T01:55:28;101075.97;;;17.21;62.24
19795;BME280;10057;59.402;17.866;2022-08-03T01:57:58;101079.41;;;17.23;62.36
19795;BME280;10057;59.402;17.866;2022-08-03T02:00:34;101080.19;;;17.25;62.24
19795;BME280;10057;59.402;17.866;2022-08-03T02:03:06;101080.09;;;17.26;62.23
19795;BME280;10057;59.402;17.866;2022-08-03T02:05:34;101093.31;;;17.29;62.38
19795;BME280;10057;59.402;17.866;2022-08-03T02:08:06;101079.91;;;17.29;62.31
19795;BME280;10057;59.402;17.866;2022-08-03T02:10:35;101074.47;;;17.31;62.21
19795;BME280;10057;59.402;17.866;2022-08-03T02:13:06;101081.53;;;17.32;62.17
19795;BME280;10057;59.402;17.866;2022-08-03T02:15:35;101074.47;;;17.31;62.15
19795;BME280;10057;59.402;17.866;2022-08-03T02:18:05;101065.75;;;17.27;61.89
19795;BME280;10057;59.402;17.866;2022-08-03T02:20:33;101068.41;;;17.27;62.06
19795;BME280;10057;59.402;17.866;2022-08-03T02:23:03;101063.13;;;17.26;62.24
19795;BME280;10057;59.402;17.866;2022-08-03T02:25:34;101062.28;;;17.25;62.31
19795;BME280;10057;59.402;17.866;2022-08-03T02:28:16;101068.59;;;17.24;62.27
19795;BME280;10057;59.402;17.866;2022-08-03T02:30:45;101068.69;;;17.23;62.11
19795;BME280;10057;59.402;17.866;2022-08-03T02:33:24;101067.91;;;17.21;62.12
19795;BME280;10057;59.402;17.866;2022-08-03T02:35:53;101071.63;;;17.18;62.36
19795;BME280;10057;59.402;17.866;2022-08-03T02:38:22;101059.94;;;17.19;62.20
19795;BME280;10057;59.402;17.866;2022-08-03T02:40:54;101068.88;;;17.20;62.28
19795;BME280;10057;59.402;17.866;2022-08-03T02:43:22;101056.41;;;17.19;62.40
19795;BME280;10057;59.402;17.866;2022-08-03T02:45:50;101061.78;;;17.19;62.29
19795;BME280;10057;59.402;17.866;2022-08-03T02:48:23;101064.38;;;17.20;62.12
19795;BME280;10057;59.402;17.866;2022-08-03T02:50:52;101055.38;;;17.21;62.11
19795;BME280;10057;59.402;17.866;2022-08-03T02:53:20;101066.00;;;17.23;62.23
19795;BME280;10057;59.402;17.866;2022-08-03T02:55:48;101056.22;;;17.22;62.45
19795;BME280;10057;59.402;17.866;2022-08-03T02:58:20;101062.44;;;17.22;62.18
19795;BME280;10057;59.402;17.866;2022-08-03T03:00:49;101062.44;;;17.22;62.44
19795;BME280;10057;59.402;17.866;2022-08-03T03:03:20;101055.47;;;17.20;62.45
19795;BME280;10057;59.402;17.866;2022-08-03T03:05:49;101058.34;;;17.17;62.63
19795;BME280;10057;59.402;17.866;2022-08-03T03:08:23;101052.00;;;17.18;62.67
19795;BME280;10057;59.402;17.866;2022-08-03T03:10:57;101049.50;;;17.15;62.47
19795;BME280;10057;59.402;17.866;2022-08-03T03:13:26;101055.06;;;17.12;62.53
19795;BME280;10057;59.402;17.866;2022-08-03T03:15:55;101050.72;;;17.09;62.50
19795;BME280;10057;59.402;17.866;2022-08-03T03:18:24;101045.47;;;17.08;62.67
19795;BME280;10057;59.402;17.866;2022-08-03T03:20:51;101051.88;;;17.05;62.63
19795;BME280;10057;59.402;17.866;2022-08-03T03:23:20;101048.44;;;17.03;62.69
19795;BME280;10057;59.402;17.866;2022-08-03T03:25:48;101047.75;;;16.99;62.65
19795;BME280;10057;59.402;17.866;2022-08-03T03:28:15;101053.38;;;16.95;62.65
19795;BME280;10057;59.402;17.866;2022-08-03T03:30:42;101051.94;;;16.89;62.86
19795;BME280;10057;59.402;17.866;2022-08-03T03:33:09;101051.16;;;16.87;62.99
19795;BME280;10057;59.402;17.866;2022-08-03T03:35:36;101051.31;;;16.84;63.07
19795;BME280;10057;59.402;17.866;2022-08-03T03:38:05;101053.31;;;16.80;62.91
19795;BME280;10057;59.402;17.866;2022-08-03T03:40:34;101051.50;;;16.81;63.25
19795;BME280;10057;59.402;17.866;2022-08-03T03:43:01;101042.53;;;16.82;63.01
19795;BME280;10057;59.402;17.866;2022-08-03T03:45:29;101046.94;;;16.83;63.19
19795;BME280;10057;59.402;17.866;2022-08-03T03:47:59;101041.41;;;16.86;63.16
19795;BME280;10057;59.402;17.866;2022-08-03T03:50:26;101045.78;;;16.87;63.34
19795;BME280;10057;59.402;17.866;2022-08-03T03:52:53;101050.19;;;16.88;63.06
19795;BME280;10057;59.402;17.866;2022-08-03T03:55:20;101053.03;;;16.85;63.33
19795;BME280;10057;59.402;17.866;2022-08-03T03:57:46;101047.88;;;16.82;63.31
19795;BME280;10057;59.402;17.866;2022-08-03T04:00:15;101047.00;;;16.81;63.33
19795;BME280;10057;59.402;17.866;2022-08-03T04:02:43;101044.25;;;16.83;63.42
19795;BME280;10057;59.402;17.866;2022-08-03T04:05:09;101046.94;;;16.83;63.39
19795;BME280;10057;59.402;17.866;2022-08-03T04:07:59;101043.41;;;16.83;63.48
19795;BME280;10057;59.402;17.866;2022-08-03T04:11:12;101050.38;;;16.85;63.32
19795;BME280;10057;59.402;17.866;2022-08-03T04:16:17;101059.81;;;16.92;63.37
19795;BME280;10057;59.402;17.866;2022-08-03T04:18:53;101060.38;;;16.97;63.36
19795;BME280;10057;59.402;17.866;2022-08-03T04:21:21;101059.06;;;17.04;63.62
19795;BME280;10057;59.402;17.866;2022-08-03T04:23:50;101071.13;;;17.12;63.54
19795;BME280;10057;59.402;17.866;2022-08-03T04:26:20;101054.69;;;17.18;63.63
19795;BME280;10057;59.402;17.866;2022-08-03T04:28:48;101065.81;;;17.26;63.44
19795;BME280;10057;59.402;17.866;2022-08-03T04:31:21;101058.44;;;17.29;63.33
19795;BME280;10057;59.402;17.866;2022-08-03T04:33:50;101058.25;;;17.33;63.28
19795;BME280;10057;59.402;17.866;2022-08-03T04:36:25;101062.50;;;17.37;63.27
19795;BME280;10057;59.402;17.866;2022-08-03T04:38:56;101067.66;;;17.40;63.23
19795;BME280;10057;59.402;17.866;2022-08-03T04:41:26;101062.13;;;17.43;63.12
19795;BME280;10057;59.402;17.866;2022-08-03T04:43:55;101061.84;;;17.47;63.07
19795;BME280;10057;59.402;17.866;2022-08-03T04:46:26;101058.03;;;17.51;63.18
19795;BME280;10057;59.402;17.866;2022-08-03T04:48:54;101054.97;;;17.58;63.08
19795;BME280;10057;59.402;17.866;2022-08-03T04:51:21;101067.06;;;17.65;63.03
19795;BME280;10057;59.402;17.866;2022-08-03T04:53:48;101068.38;;;17.72;62.97
19795;BME280;10057;59.402;17.866;2022-08-03T04:56:15;101075.31;;;17.76;62.95
19795;BME280;10057;59.402;17.866;2022-08-03T04:58:41;101074.16;;;17.80;62.91
19795;BME280;10057;59.402;17.866;2022-08-03T05:01:08;101072.25;;;17.82;62.79
19795;BME280;10057;59.402;17.866;2022-08-03T05:03:35;101066.59;;;17.87;62.87
19795;BME280;10057;59.402;17.866;2022-08-03T05:06:01;101069.88;;;17.92;62.72
19795;BME280;10057;59.402;17.866;2022-08-03T05:08:37;101077.03;;;17.91;62.68
19795;BME280;10057;59.402;17.866;2022-08-03T05:11:12;101069.94;;;17.90;62.67
19795;BME280;10057;59.402;17.866;2022-08-03T05:13:39;101077.03;;;17.91;63.00
19795;BME280;10057;59.402;17.866;2022-08-03T05:16:05;101069.75;;;17.93;63.00
19795;BME280;10057;59.402;17.866;2022-08-03T05:18:32;101072.25;;;17.96;62.85
19795;BME280;10057;59.402;17.866;2022-08-03T05:20:59;101071.22;;;17.99;62.88
19795;BME280;10057;59.402;17.866;2022-08-03T05:23:25;101068.41;;;18.00;62.96
19795;BME280;10057;59.402;17.866;2022-08-03T05:25:52;101073.59;;;18.04;62.97
19795;BME280;10057;59.402;17.866;2022-08-03T05:28:18;101077.91;;;18.06;63.05
19795;BME280;10057;59.402;17.866;2022-08-03T05:30:45;101074.06;;;18.10;63.13
19795;BME280;10057;59.402;17.866;2022-08-03T05:33:12;101082.78;;;18.14;63.08
19795;BME280;10057;59.402;17.866;2022-08-03T05:35:39;101079.81;;;18.18;63.08
19795;BME280;10057;59.402;17.866;2022-08-03T05:38:26;101080.47;;;18.22;63.07
19795;BME280;10057;59.402;17.866;2022-08-03T05:40:59;101077.50;;;18.27;63.10
19795;BME280;10057;59.402;17.866;2022-08-03T05:43:46;101073.53;;;18.32;62.95
19795;BME280;10057;59.402;17.866;2022-08-03T05:46:12;101074.91;;;18.39;63.11
19795;BME280;10057;59.402;17.866;2022-08-03T05:48:40;101066.41;;;18.45;62.95
19795;BME280;10057;59.402;17.866;2022-08-03T05:51:07;101069.69;;;18.51;62.90
19795;BME280;10057;59.402;17.866;2022-08-03T05:53:41;101065.16;;;18.51;62.91
19795;BME280;10057;59.402;17.866;2022-08-03T05:56:08;101077.44;;;18.55;62.72
19795;BME280;10057;59.402;17.866;2022-08-03T05:58:40;101075.53;;;18.57;62.85
19795;BME280;10057;59.402;17.866;2022-08-03T06:01:07;101072.72;;;18.59;62.76
19795;BME280;10057;59.402;17.866;2022-08-03T06:03:34;101069.09;;;18.60;62.66
19795;BME280;10057;59.402;17.866;2022-08-03T06:06:00;101076.06;;;18.62;62.87
19795;BME280;10057;59.402;17.866;2022-08-03T06:08:27;101070.69;;;18.62;62.72
19795;BME280;10057;59.402;17.866;2022-08-03T06:10:53;101071.47;;;18.64;62.76
19795;BME280;10057;59.402;17.866;2022-08-03T06:13:20;101076.72;;;18.66;62.59
19795;BME280;10057;59.402;17.866;2022-08-03T06:15:49;101063.00;;;18.70;62.76
19795;BME280;10057;59.402;17.866;2022-08-03T06:18:16;101081.41;;;18.77;62.92
19795;BME280;10057;59.402;17.866;2022-08-03T06:20:43;101071.34;;;18.80;62.82
19795;BME280;10057;59.402;17.866;2022-08-03T06:23:12;101084.56;;;18.83;62.77
19795;BME280;10057;59.402;17.866;2022-08-03T06:25:43;101083.63;;;18.84;62.76
19795;BME280;10057;59.402;17.866;2022-08-03T06:28:10;101090.72;;;18.85;62.91
19795;BME280;10057;59.402;17.866;2022-08-03T06:30:59;101090.41;;;18.90;62.91
19795;BME280;10057;59.402;17.866;2022-08-03T06:33:27;101084.94;;;18.91;62.86
19795;BME280;10057;59.402;17.866;2022-08-03T06:36:13;101083.09;;;18.92;62.78
19795;BME280;10057;59.402;17.866;2022-08-03T06:38:40;101080.31;;;18.93;62.93
19795;BME280;10057;59.402;17.866;2022-08-03T06:41:07;101089.91;;;18.98;62.93
19795;BME280;10057;59.402;17.866;2022-08-03T06:43:33;101086.06;;;19.02;62.93
19795;BME280;10057;59.402;17.866;2022-08-03T06:46:03;101083.16;;;19.05;62.88
19795;BME280;10057;59.402;17.866;2022-08-03T06:48:31;101076.59;;;19.09;62.97
19795;BME280;10057;59.402;17.866;2022-08-03T06:50:58;101080.03;;;19.11;62.86
19795;BME280;10057;59.402;17.866;2022-08-03T06:53:24;101096.63;;;19.17;62.90
19795;BME280;10057;59.402;17.866;2022-08-03T06:55:51;101099.88;;;19.23;62.77
19795;BME280;10057;59.402;17.866;2022-08-03T06:58:21;101096.84;;;19.27;62.76
19795;BME280;10057;59.402;17.866;2022-08-03T07:00:54;101091.28;;;19.30;62.99
19795;BME280;10057;59.402;17.866;2022-08-03T07:03:20;101085.69;;;19.33;62.69
19795;BME280;10057;59.402;17.866;2022-08-03T07:05:47;101079.97;;;19.38;62.68
19795;BME280;10057;59.402;17.866;2022-08-03T07:08:15;101077.72;;;19.45;62.76
19795;BME280;10057;59.402;17.866;2022-08-03T07:10:58;101077.31;;;19.51;62.68
19795;BME280;10057;59.402;17.866;2022-08-03T07:13:24;101084.97;;;19.57;62.68
19795;BME280;10057;59.402;17.866;2022-08-03T07:15:51;101078.41;;;19.61;62.65
19795;BME280;10057;59.402;17.866;2022-08-03T07:18:21;101079.94;;;19.65;62.60
19795;BME280;10057;59.402;17.866;2022-08-03T07:20:56;101071.44;;;19.71;62.62
19795;BME280;10057;59.402;17.866;2022-08-03T07:23:22;101073.69;;;19.77;62.73
19795;BME280;10057;59.402;17.866;2022-08-03T07:25:49;101069.59;;;19.84;62.60
19795;BME280;10057;59.402;17.866;2022-08-03T07:28:16;101061.81;;;19.93;62.76
19795;BME280;10057;59.402;17.866;2022-08-03T07:30:43;101059.03;;;20.07;62.97
19795;BME280;10057;59.402;17.866;2022-08-03T07:33:09;101054.78;;;20.28;62.43
19795;BME280;10057;59.402;17.866;2022-08-03T07:35:37;101043.38;;;20.49;61.98
19795;BME280;10057;59.402;17.866;2022-08-03T07:38:04;101059.41;;;20.63;61.49
19795;BME280;10057;59.402;17.866;2022-08-03T07:40:31;101052.72;;;20.69;61.37
19795;BME280;10057;59.402;17.866;2022-08-03T07:42:59;101057.34;;;20.67;61.36
19795;BME280;10057;59.402;17.866;2022-08-03T07:45:26;101063.81;;;20.64;61.23
19795;BME280;10057;59.402;17.866;2022-08-03T07:47:52;101071.91;;;20.64;61.56
19795;BME280;10057;59.402;17.866;2022-08-03T07:50:20;101065.31;;;20.68;61.55
19795;BME280;10057;59.402;17.866;2022-08-03T07:52:48;101065.84;;;20.73;61.49
19795;BME280;10057;59.402;17.866;2022-08-03T07:55:20;101064.19;;;20.83;61.65
19795;BME280;10057;59.402;17.866;2022-08-03T07:58:05;101065.97;;;20.96;60.84
19795;BME280;10057;59.402;17.866;2022-08-03T08:00:32;101059.84;;;21.05;61.08
19795;BME280;10057;59.402;17.866;2022-08-03T08:02:59;101072.75;;;21.13;61.01
19795;BME280;10057;59.402;17.866;2022-08-03T08:05:27;101063.97;;;21.22;60.64
19795;BME280;10057;59.402;17.866;2022-08-03T08:07:53;101067.56;;;21.34;60.75
19795;BME280;10057;59.402;17.866;2022-08-03T08:10:20;101066.75;;;21.44;60.34
19795;BME280;10057;59.402;17.866;2022-08-03T08:12:48;101067.88;;;21.53;60.17
19795;BME280;10057;59.402;17.866;2022-08-03T08:15:14;101066.31;;;21.62;60.50
19795;BME280;10057;59.402;17.866;2022-08-03T08:17:46;101064.09;;;21.67;60.34
19795;BME280;10057;59.402;17.866;2022-08-03T08:20:21;101064.59;;;21.72;59.70
19795;BME280;10057;59.402;17.866;2022-08-03T08:22:56;101063.59;;;21.73;59.57
19795;BME280;10057;59.402;17.866;2022-08-03T08:25:27;101067.91;;;21.75;59.60
19795;BME280;10057;59.402;17.866;2022-08-03T08:27:55;101077.72;;;21.76;59.69
19795;BME280;10057;59.402;17.866;2022-08-03T08:30:41;101077.50;;;21.80;59.79
19795;BME280;10057;59.402;17.866;2022-08-03T08:33:08;101072.22;;;21.78;59.72
19795;BME280;10057;59.402;17.866;2022-08-03T08:35:49;101081.03;;;21.80;59.39
19795;BME280;10057;59.402;17.866;2022-08-03T08:38:15;101075.53;;;21.82;59.40
19795;BME280;10057;59.402;17.866;2022-08-03T08:40:42;101069.00;;;21.84;59.54
19795;BME280;10057;59.402;17.866;2022-08-03T08:43:09;101055.88;;;21.80;59.31
19795;BME280;10057;59.402;17.866;2022-08-03T08:45:36;101057.97;;;21.76;59.52
19795;BME280;10057;59.402;17.866;2022-08-03T08:48:04;101060.91;;;21.73;59.30
19795;BME280;10057;59.402;17.866;2022-08-03T08:50:36;101057.13;;;21.75;59.25
19795;BME280;10057;59.402;17.866;2022-08-03T08:53:06;101060.28;;;21.81;59.26
19795;BME280;10057;59.402;17.866;2022-08-03T08:55:41;101046.06;;;21.90;59.49
19795;BME280;10057;59.402;17.866;2022-08-03T08:58:28;101054.91;;;22.03;59.34
19795;BME280;10057;59.402;17.866;2022-08-03T09:00:55;101058.38;;;22.16;59.20
19795;BME280;10057;59.402;17.866;2022-08-03T09:03:23;101056.66;;;22.27;59.10
19795;BME280;10057;59.402;17.866;2022-08-03T09:05:59;101047.66;;;22.37;58.66
19795;BME280;10057;59.402;17.866;2022-08-03T09:08:27;101044.56;;;22.42;58.80
19795;BME280;10057;59.402;17.866;2022-08-03T09:10:54;101045.78;;;22.49;58.38
19795;BME280;10057;59.402;17.866;2022-08-03T09:13:21;101033.75;;;22.53;58.41
19795;BME280;10057;59.402;17.866;2022-08-03T09:15:53;101031.38;;;22.60;58.24
19795;BME280;10057;59.402;17.866;2022-08-03T09:18:33;101036.16;;;22.67;58.23
19795;BME280;10057;59.402;17.866;2022-08-03T09:21:26;101041.16;;;22.72;57.97
19795;BME280;10057;59.402;17.866;2022-08-03T09:24:00;101038.81;;;22.79;57.88
19795;BME280;10057;59.402;17.866;2022-08-03T09:26:31;101046.25;;;22.86;57.74
19795;BME280;10057;59.402;17.866;2022-08-03T09:29:01;101052.78;;;22.95;57.64
19795;BME280;10057;59.402;17.866;2022-08-03T09:31:40;101054.59;;;23.06;57.41
19795;BME280;10057;59.402;17.866;2022-08-03T09:34:14;101048.50;;;23.13;57.08
19795;BME280;10057;59.402;17.866;2022-08-03T09:36:46;101054.41;;;23.18;57.01
19795;BME280;10057;59.402;17.866;2022-08-03T09:39:15;101052.16;;;23.24;56.94
19795;BME280;10057;59.402;17.866;2022-08-03T09:41:44;101061.34;;;23.32;56.71
19795;BME280;10057;59.402;17.866;2022-08-03T09:44:11;101062.97;;;23.45;56.59
19795;BME280;10057;59.402;17.866;2022-08-03T09:46:55;101056.38;;;23.58;56.48
19795;BME280;10057;59.402;17.866;2022-08-03T09:49:22;101056.94;;;23.73;56.04
19795;BME280;10057;59.402;17.866;2022-08-03T09:51:50;101058.69;;;23.84;56.15
19795;BME280;10057;59.402;17.866;2022-08-03T09:54:37;101045.03;;;23.95;55.29
19795;BME280;10057;59.402;17.866;2022-08-03T09:57:06;101050.91;;;24.00;55.00
19795;BME280;10057;59.402;17.866;2022-08-03T09:59:33;101049.91;;;24.01;55.24
19795;BME280;10057;59.402;17.866;2022-08-03T10:02:04;101044.06;;;24.06;54.92
19795;BME280;10057;59.402;17.866;2022-08-03T10:04:31;101047.25;;;24.11;55.04
19795;BME280;10057;59.402;17.866;2022-08-03T10:09:32;101030.13;;;24.20;54.70
19795;BME280;10057;59.402;17.866;2022-08-03T10:12:09;101030.13;;;24.20;54.58
19795;BME280;10057;59.402;17.866;2022-08-03T10:14:40;101031.03;;;24.21;54.55
19795;BME280;10057;59.402;17.866;2022-08-03T10:17:24;101044.28;;;24.24;54.80
19795;BME280;10057;59.402;17.866;2022-08-03T10:19:51;101036.88;;;24.26;54.82
19795;BME280;10057;59.402;17.866;2022-08-03T10:22:21;101034.63;;;24.31;54.57
19795;BME280;10057;59.402;17.866;2022-08-03T10:24:58;101023.47;;;24.34;54.55
19795;BME280;10057;59.402;17.866;2022-08-03T10:27:30;101035.78;;;24.38;54.67
19795;BME280;10057;59.402;17.866;2022-08-03T10:30:01;101039.34;;;24.39;54.49
19795;BME280;10057;59.402;17.866;2022-08-03T10:32:34;101041.19;;;24.38;54.55
19795;BME280;10057;59.402;17.866;2022-08-03T10:35:06;101036.22;;;24.43;54.65
19795;BME280;10057;59.402;17.866;2022-08-03T10:38:02;101029.97;;;24.52;54.21
19795;BME280;10057;59.402;17.866;2022-08-03T10:40:31;101029.41;;;24.68;54.14
19795;BME280;10057;59.402;17.866;2022-08-03T10:43:19;101021.56;;;24.85;53.74
19795;BME280;10057;59.402;17.866;2022-08-03T10:45:47;101023.28;;;24.95;53.48
19795;BME280;10057;59.402;17.866;2022-08-03T10:48:15;101021.44;;;24.96;53.47
19795;BME280;10057;59.402;17.866;2022-08-03T10:50:43;101022.13;;;24.98;53.49
19795;BME280;10057;59.402;17.866;2022-08-03T10:53:10;101029.88;;;25.12;53.72
19795;BME280;10057;59.402;17.866;2022-08-03T10:55:44;101018.59;;;25.26;53.23
19795;BME280;10057;59.402;17.866;2022-08-03T11:01:48;101031.25;;;25.45;52.75
19795;BME280;10057;59.402;17.866;2022-08-03T11:04:25;101033.22;;;25.53;52.80
19795;BME280;10057;59.402;17.866;2022-08-03T11:07:19;101025.22;;;25.51;52.01
19795;BME280;10057;59.402;17.866;2022-08-03T11:09:49;101033.97;;;25.45;52.21
19795;BME280;10057;59.402;17.866;2022-08-03T11:12:27;101028.53;;;25.45;52.00
19795;BME280;10057;59.402;17.866;2022-08-03T11:15:05;101033.66;;;25.48;52.07
19795;BME280;10057;59.402;17.866;2022-08-03T11:17:34;101036.78;;;25.53;51.71
19795;BME280;10057;59.402;17.866;2022-08-03T11:20:46;101036.19;;;25.60;51.98
19795;BME280;10057;59.402;17.866;2022-08-03T11:23:15;101043.38;;;25.61;51.28
19795;BME280;10057;59.402;17.866;2022-08-03T11:26:18;101029.34;;;25.56;51.42
19795;BME280;10057;59.402;17.866;2022-08-03T11:28:48;101037.09;;;25.50;51.50
19795;BME280;10057;59.402;17.866;2022-08-03T11:34:07;101025.13;;;25.34;51.35
19795;BME280;10057;59.402;17.866;2022-08-03T11:39:42;101025.00;;;25.16;52.01
19795;BME280;10057;59.402;17.866;2022-08-03T11:47:19;101012.00;;;24.90;52.50
19795;BME280;10057;59.402;17.866;2022-08-03T11:49:47;101012.28;;;24.87;52.38
19795;BME280;10057;59.402;17.866;2022-08-03T11:52:16;101009.44;;;24.79;52.64
19795;BME280;10057;59.402;17.866;2022-08-03T11:54:43;101016.56;;;24.70;52.73
19795;BME280;10057;59.402;17.866;2022-08-03T11:57:10;101001.59;;;24.66;52.80
19795;BME280;10057;59.402;17.866;2022-08-03T11:59:37;101002.44;;;24.67;53.29
19795;BME280;10057;59.402;17.866;2022-08-03T12:02:09;100994.47;;;24.65;53.46
19795;BME280;10057;59.402;17.866;2022-08-03T12:04:57;100998.03;;;24.66;53.47
19795;BME280;10057;59.402;17.866;2022-08-03T12:07:26;100997.16;;;24.65;53.67
19795;BME280;10057;59.402;17.866;2022-08-03T12:10:14;100999.72;;;24.67;53.50
19795;BME280;10057;59.402;17.866;2022-08-03T12:12:41;101004.13;;;24.68;53.33
19795;BME280;10057;59.402;17.866;2022-08-03T12:15:11;101006.84;;;24.68;53.57
19795;BME280;10057;59.402;17.866;2022-08-03T12:17:39;101002.03;;;24.62;53.43
19795;BME280;10057;59.402;17.866;2022-08-03T12:20:20;100993.28;;;24.58;53.65
19795;BME280;10057;59.402;17.866;2022-08-03T12:23:04;100995.03;;;24.69;54.02
19795;BME280;10057;59.402;17.866;2022-08-03T12:25:33;101003.00;;;24.90;53.72
19795;BME280;10057;59.402;17.866;2022-08-03T12:28:09;100990.88;;;25.13;53.94
19795;BME280;10057;59.402;17.866;2022-08-03T12:31:00;100997.38;;;25.40;53.63
19795;BME280;10057;59.402;17.866;2022-08-03T12:33:28;100990.31;;;25.57;53.27
19795;BME280;10057;59.402;17.866;2022-08-03T12:38:32;100985.06;;;25.92;52.54
19795;BME280;10057;59.402;17.866;2022-08-03T12:41:08;100993.09;;;26.12;52.00
19795;BME280;10057;59.402;17.866;2022-08-03T12:43:48;100994.22;;;26.19;51.78
19795;BME280;10057;59.402;17.866;2022-08-03T12:46:18;100992.19;;;26.21;51.74
19795;BME280;10057;59.402;17.866;2022-08-03T12:49:05;100986.09;;;26.37;51.63
19795;BME280;10057;59.402;17.866;2022-08-03T12:51:35;100990.84;;;26.53;51.50
19795;BME280;10057;59.402;17.866;2022-08-03T12:54:03;100994.53;;;26.61;51.08
19795;BME280;10057;59.402;17.866;2022-08-03T12:56:30;100994.44;;;26.71;51.06
19795;BME280;10057;59.402;17.866;2022-08-03T12:58:57;101002.91;;;26.86;51.17
19795;BME280;10057;59.402;17.866;2022-08-03T13:01:24;100995.97;;;27.09;50.82
19795;BME280;10057;59.402;17.866;2022-08-03T13:03:53;100992.06;;;27.30;50.42
19795;BME280;10057;59.402;17.866;2022-08-03T13:06:26;100992.53;;;27.51;49.88
19795;BME280;10057;59.402;17.866;2022-08-03T13:09:04;100990.41;;;27.63;49.61
19795;BME280;10057;59.402;17.866;2022-08-03T13:11:32;100994.81;;;27.64;49.36
19795;BME280;10057;59.402;17.866;2022-08-03T13:14:18;100993.25;;;27.61;49.12
19795;BME280;10057;59.402;17.866;2022-08-03T13:16:47;100984.63;;;27.66;49.05
19795;BME280;10057;59.402;17.866;2022-08-03T13:19:14;100993.47;;;27.68;48.83
19795;BME280;10057;59.402;17.866;2022-08-03T13:21:42;100986.00;;;27.70;48.91
19795;BME280;10057;59.402;17.866;2022-08-03T13:24:29;100986.25;;;27.85;48.77
19795;BME280;10057;59.402;17.866;2022-08-03T13:26:57;100997.56;;;27.98;48.42
19795;BME280;10057;59.402;17.866;2022-08-03T13:29:24;100997.25;;;28.09;48.31
19795;BME280;10057;59.402;17.866;2022-08-03T13:31:50;101006.16;;;28.11;47.71
19795;BME280;10057;59.402;17.866;2022-08-03T13:34:17;101004.25;;;28.12;47.92
19795;BME280;10057;59.402;17.866;2022-08-03T13:36:49;101009.38;;;28.07;47.67
19795;BME280;10057;59.402;17.866;2022-08-03T13:39:35;101002.84;;;28.00;47.76
19795;BME280;10057;59.402;17.866;2022-08-03T13:42:21;101014.44;;;28.02;47.64